Time;durP1;ratioP1;P1;durP2;ratioP2;P2;SDS_P1;SDS_P2;PMS_P1;PMS_P2;Temp;Humidity;BMP_temperature;BMP_pressure;BME280_temperature;BME280_humidity;BME280_pressure;Samples;Min_cycle;Max_cycle;Signal;HPM_P1;HPM_P2
2023/11/04 00:00:00;;;;;;;4.30;0.70;;;;;;;6.82;100.00;97859.34;108967;1272;22582;-81
2023/11/04 00:02:29;;;;;;;2.40;0.50;;;;;;;6.82;100.00;97867.30;109157;1270;23591;-81
2023/11/04 00:04:58;;;;;;;4.20;0.70;;;;;;;6.82;100.00;97865.78;109311;1267;22467;-82
2023/11/04 00:07:29;;;;;;;4.60;0.70;;;;;;;6.82;100.00;97869.88;108891;1272;22558;-80
2023/11/04 00:09:57;;;;;;;4.70;0.40;;;;;;;6.82;100.00;97874.46;109487;1272;22455;-83
2023/11/04 00:12:27;;;;;;;4.30;0.50;;;;;;;6.82;100.00;97878.66;109006;1254;22548;-83
2023/11/04 00:14:56;;;;;;;3.50;0.50;;;;;;;6.83;100.00;97880.66;108234;1272;302898;-79
2023/11/04 00:17:24;;;;;;;3.60;0.50;;;;;;;6.83;100.00;97884.59;108550;1270;22584;-79
2023/11/04 00:19:53;;;;;;;2.70;0.50;;;;;;;6.85;100.00;97891.09;108418;1272;23404;-79
2023/11/04 00:22:21;;;;;;;2.20;0.40;;;;;;;6.86;100.00;97892.60;108271;1260;22472;-79
2023/11/04 00:24:53;;;;;;;2.90;0.50;;;;;;;6.88;100.00;97896.98;108469;1272;22586;-80
2023/11/04 00:27:21;;;;;;;2.60;0.40;;;;;;;6.89;100.00;97900.36;108263;1272;22567;-79
2023/11/04 00:29:49;;;;;;;2.50;0.50;;;;;;;6.89;100.00;97898.43;108293;1272;22544;-80
2023/11/04 00:32:18;;;;;;;6.30;0.70;;;;;;;6.91;100.00;97901.70;108540;1272;22560;-83
2023/11/04 00:34:46;;;;;;;3.30;0.40;;;;;;;6.91;100.00;97906.59;108419;1272;22654;-79
2023/11/04 00:37:15;;;;;;;1.90;0.40;;;;;;;6.91;100.00;97914.55;108530;1272;23378;-81
2023/11/04 00:39:43;;;;;;;3.90;0.40;;;;;;;6.92;100.00;97915.42;108649;1272;22777;-80
2023/11/04 00:42:11;;;;;;;2.30;0.50;;;;;;;6.92;100.00;97918.29;108800;1272;25274;-80
2023/11/04 00:44:41;;;;;;;3.30;0.60;;;;;;;6.94;100.00;97919.95;108590;1272;22531;-81
2023/11/04 00:47:10;;;;;;;4.40;0.90;;;;;;;6.94;100.00;97922.38;108662;1269;24215;-80
2023/11/04 00:49:39;;;;;;;3.90;0.60;;;;;;;6.95;100.00;97925.79;108392;1272;22535;-81
2023/11/04 00:52:10;;;;;;;3.50;0.80;;;;;;;6.94;100.00;97924.34;108545;1264;23246;-81
2023/11/04 00:54:39;;;;;;;2.00;0.30;;;;;;;6.95;100.00;97925.54;108440;1272;22525;-83
2023/11/04 00:57:10;;;;;;;2.40;0.50;;;;;;;6.94;100.00;97929.08;108988;1272;24233;-82
2023/11/04 00:59:37;;;;;;;;;;;;;;;6.95;100.00;97935.12;108308;1274;25327;-81
2023/11/04 01:02:10;;;;;;;8.90;1.00;;;;;;;6.94;100.00;97938.20;108531;1272;22535;-80
2023/11/04 01:04:39;;;;;;;3.80;0.60;;;;;;;6.94;100.00;97937.60;108609;1272;22609;-83
2023/11/04 01:07:08;;;;;;;2.90;0.50;;;;;;;6.94;100.00;97934.06;108479;1270;22583;-79
2023/11/04 01:09:37;;;;;;;2.30;0.50;;;;;;;6.95;100.00;97940.27;108323;1272;23342;-81
2023/11/04 01:12:08;;;;;;;3.10;0.50;;;;;;;6.96;100.00;97943.85;108260;1273;22986;-81
2023/11/04 01:14:40;;;;;;;2.10;0.40;;;;;;;6.98;100.00;97945.91;108316;1274;22567;-82
2023/11/04 01:17:09;;;;;;;2.50;0.50;;;;;;;6.98;100.00;97951.39;108425;1272;22528;-81
2023/11/04 01:19:38;;;;;;;1.60;0.20;;;;;;;6.98;100.00;97952.46;108117;1273;25397;-81
2023/11/04 01:22:14;;;;;;;1.50;0.30;;;;;;;6.99;100.00;97958.16;108116;1270;23185;-80
2023/11/04 01:24:48;;;;;;;2.20;0.40;;;;;;;7.00;100.00;97959.77;108237;1272;26760;-80
2023/11/04 01:27:21;;;;;;;2.60;0.50;;;;;;;7.02;100.00;97960.11;108445;1272;22537;-84
2023/11/04 01:29:50;;;;;;;2.20;0.30;;;;;;;7.04;100.00;97961.73;108260;1272;23984;-80
2023/11/04 01:32:20;;;;;;;3.10;0.40;;;;;;;7.05;100.00;97966.77;108204;1273;22472;-81
2023/11/04 01:34:50;;;;;;;1.60;0.30;;;;;;;7.07;100.00;97961.52;108346;1272;22561;-81
2023/11/04 01:37:19;;;;;;;2.70;0.30;;;;;;;7.07;100.00;97963.58;108542;1265;23909;-80
2023/11/04 01:39:51;;;;;;;1.80;0.30;;;;;;;7.07;100.00;97965.95;108558;1266;24224;-80
2023/11/04 01:42:21;;;;;;;2.40;0.40;;;;;;;7.07;100.00;97968.52;108508;1272;23861;-84
2023/11/04 01:44:50;;;;;;;3.20;0.30;;;;;;;7.08;100.00;97974.27;108593;1269;22531;-82
2023/11/04 01:47:19;;;;;;;1.30;0.30;;;;;;;7.08;100.00;97976.09;108467;1272;25398;-79
2023/11/04 01:49:50;;;;;;;1.30;0.30;;;;;;;7.09;100.00;97979.92;108412;1272;26543;-80
2023/11/04 01:52:19;;;;;;;3.00;0.40;;;;;;;7.09;100.00;97978.45;108595;1272;24190;-81
2023/11/04 01:54:48;;;;;;;3.30;0.40;;;;;;;7.10;100.00;97984.55;108514;1272;22529;-81
2023/11/04 01:57:20;;;;;;;1.40;0.40;;;;;;;7.11;100.00;97987.57;108612;1267;22552;-80
2023/11/04 01:59:52;;;;;;;2.40;0.30;;;;;;;7.12;100.00;97987.56;108424;1273;22582;-80
2023/11/04 02:02:22;;;;;;;5.50;0.50;;;;;;;7.13;100.00;97990.78;108584;1272;22540;-82
2023/11/04 02:04:51;;;;;;;2.10;0.50;;;;;;;7.14;100.00;97992.50;108575;1272;25405;-80
2023/11/04 02:07:27;;;;;;;1.70;0.40;;;;;;;7.14;100.00;97993.66;108449;1250;22642;-81
2023/11/04 02:09:58;;;;;;;1.60;0.50;;;;;;;7.15;100.00;97995.08;108486;1267;22524;-80
2023/11/04 02:12:32;;;;;;;1.50;0.30;;;;;;;7.15;100.00;97993.55;108728;1273;26545;-82
2023/11/04 02:15:07;;;;;;;2.50;0.40;;;;;;;7.16;100.00;97999.81;108519;1266;25399;-81
2023/11/04 02:17:39;;;;;;;2.10;0.50;;;;;;;7.17;100.00;98000.07;108591;1266;23337;-82
2023/11/04 02:20:14;;;;;;;2.00;0.40;;;;;;;7.17;100.00;98000.11;108542;1272;24056;-81
2023/11/04 02:22:45;;;;;;;2.10;0.50;;;;;;;7.18;100.00;98001.83;108376;1269;25566;-81
2023/11/04 02:25:18;;;;;;;5.20;0.50;;;;;;;7.18;100.00;98006.02;108129;1266;24238;-81
2023/11/04 02:27:48;;;;;;;2.20;0.50;;;;;;;7.18;100.00;98006.63;108136;1272;25785;-80
2023/11/04 02:30:17;;;;;;;1.80;0.40;;;;;;;7.19;100.00;98005.91;108260;1273;24247;-83
2023/11/04 02:32:51;;;;;;;2.90;0.50;;;;;;;7.19;100.00;98009.84;108403;1272;22523;-81
2023/11/04 02:35:25;;;;;;;2.70;0.60;;;;;;;7.18;100.00;98016.61;108554;1272;22552;-82
2023/11/04 02:37:56;;;;;;;3.30;0.60;;;;;;;7.18;100.00;98021.30;108326;1270;22617;-80
2023/11/04 02:40:25;;;;;;;3.00;0.80;;;;;;;7.20;100.00;98028.87;108415;1272;22554;-80
2023/11/04 02:42:55;;;;;;;4.30;0.60;;;;;;;7.20;100.00;98032.14;108569;1272;25464;-80
2023/11/04 02:45:25;;;;;;;4.70;0.60;;;;;;;7.20;100.00;98037.79;108456;1272;22499;-80
2023/11/04 02:47:53;;;;;;;2.40;0.60;;;;;;;7.20;100.00;98033.76;108544;1269;22547;-80
2023/11/04 02:50:21;;;;;;;3.40;0.70;;;;;;;7.20;100.00;98035.16;108521;1272;22543;-80
2023/11/04 02:52:50;;;;;;;3.30;0.70;;;;;;;7.23;100.00;98041.45;108683;1272;22554;-80
2023/11/04 02:55:20;;;;;;;1.90;0.60;;;;;;;7.25;100.00;98045.85;108650;1272;22576;-84
2023/11/04 02:57:52;;;;;;;3.50;0.60;;;;;;;7.27;100.00;98052.69;108614;1272;22643;-80
2023/11/04 03:00:20;;;;;;;5.10;0.90;;;;;;;7.29;100.00;98051.64;108425;1272;22543;-81
2023/11/04 03:02:52;;;;;;;5.20;0.60;;;;;;;7.31;100.00;98054.21;108674;1272;23343;-80
2023/11/04 03:05:23;;;;;;;3.80;0.70;;;;;;;7.32;100.00;98055.05;108608;1267;23417;-80
2023/11/04 03:07:52;;;;;;;4.10;0.80;;;;;;;7.33;100.00;98055.21;108395;1273;22657;-81
2023/11/04 03:10:22;;;;;;;4.70;0.90;;;;;;;7.35;100.00;98054.73;108550;1270;22536;-81
2023/11/04 03:12:51;;;;;;;3.90;0.80;;;;;;;7.36;100.00;98057.38;108562;1265;25366;-80
2023/11/04 03:15:20;;;;;;;6.30;0.80;;;;;;;7.37;100.00;98054.08;108373;1270;22525;-80
2023/11/04 03:17:50;;;;;;;3.50;0.60;;;;;;;7.38;100.00;98051.16;110514;1258;22249;-82
2023/11/04 03:20:19;;;;;;;4.10;0.70;;;;;;;7.40;100.00;98054.83;110671;1270;22013;-85
2023/11/04 03:22:47;;;;;;;3.40;0.70;;;;;;;7.40;100.00;98055.69;110778;1272;22230;-81
2023/11/04 03:25:19;;;;;;;2.20;0.60;;;;;;;7.40;100.00;98060.69;110693;1272;22289;-80
2023/11/04 03:27:48;;;;;;;3.60;1.40;;;;;;;7.40;100.00;98058.27;110777;1272;22182;-79
2023/11/04 03:30:17;;;;;;;3.70;0.60;;;;;;;7.42;100.00;98063.05;110753;1272;23488;-84
2023/11/04 03:32:45;;;;;;;2.90;0.90;;;;;;;7.43;100.00;98062.90;110752;1272;22196;-82
2023/11/04 03:35:14;;;;;;;3.30;0.60;;;;;;;7.43;100.00;98063.70;110766;1272;22287;-80
2023/11/04 03:37:42;;;;;;;2.90;0.70;;;;;;;7.43;100.00;98066.38;110733;1272;22180;-79
2023/11/04 03:40:14;;;;;;;2.70;0.40;;;;;;;7.44;100.00;98066.48;110745;1272;22166;-82
2023/11/04 03:42:43;;;;;;;1.90;0.50;;;;;;;7.45;100.00;98068.55;110715;1266;22182;-81
2023/11/04 03:45:12;;;;;;;2.80;0.60;;;;;;;7.45;100.00;98071.58;110738;1252;22925;-84
2023/11/04 03:47:41;;;;;;;;;;;;;;;7.46;100.00;98072.78;109922;1272;24158;-79
2023/11/04 03:50:10;;;;;;;2.00;0.50;;;;;;;7.45;100.00;98077.39;108657;1272;22765;-79
2023/11/04 03:52:38;;;;;;;1.60;0.30;;;;;;;7.44;100.00;98076.78;108616;1272;25392;-80
2023/11/04 03:55:08;;;;;;;3.10;0.70;;;;;;;7.45;100.00;98076.27;108563;1266;22644;-82
2023/11/04 03:57:36;;;;;;;6.10;0.50;;;;;;;7.45;100.00;98078.29;108444;1272;22641;-79
2023/11/04 04:00:07;;;;;;;1.40;0.30;;;;;;;7.45;100.00;98079.45;108636;1272;23453;-81
2023/11/04 04:02:35;;;;;;;2.60;0.40;;;;;;;7.44;100.00;98073.39;108533;1272;25507;-80
2023/11/04 04:05:04;;;;;;;4.50;0.60;;;;;;;7.44;100.00;98075.15;108609;1272;22531;-80
2023/11/04 04:07:33;;;;;;;4.00;0.60;;;;;;;7.44;100.00;98075.21;108790;1269;23002;-79
2023/11/04 04:10:02;;;;;;;2.60;0.50;;;;;;;7.42;100.00;98071.84;108808;1272;23147;-79
2023/11/04 04:12:30;;;;;;;1.60;0.40;;;;;;;7.42;100.00;98070.77;109252;1251;24288;-80
2023/11/04 04:14:58;;;;;;;2.10;0.40;;;;;;;7.39;100.00;98070.77;108954;1266;22550;-79
2023/11/04 04:17:27;;;;;;;4.50;0.50;;;;;;;7.38;100.00;98077.39;108431;1272;26748;-79
2023/11/04 04:19:55;;;;;;;2.10;0.40;;;;;;;7.35;100.00;98082.25;108552;1253;22520;-79
2023/11/04 04:22:24;;;;;;;1.40;0.40;;;;;;;7.34;100.00;98088.64;108538;1266;22521;-80
2023/11/04 04:24:52;;;;;;;3.30;0.40;;;;;;;7.34;100.00;98092.60;108268;1272;24037;-78
2023/11/04 04:27:20;;;;;;;2.60;0.30;;;;;;;7.33;100.00;98091.99;108291;1266;25531;-79
2023/11/04 04:29:49;;;;;;;1.60;0.50;;;;;;;7.32;100.00;98094.77;108371;1272;22537;-79
2023/11/04 04:32:18;;;;;;;2.00;0.40;;;;;;;7.31;100.00;98097.15;108399;1272;22580;-78
2023/11/04 04:34:46;;;;;;;2.20;0.30;;;;;;;7.31;100.00;98104.32;108367;1272;22567;-79
2023/11/04 04:37:15;;;;;;;2.30;0.40;;;;;;;7.30;100.00;98103.85;108448;1266;22534;-78
2023/11/04 04:39:44;;;;;;;1.80;0.30;;;;;;;7.30;100.00;98109.35;108316;1272;24171;-78
2023/11/04 04:42:13;;;;;;;5.70;0.50;;;;;;;7.29;100.00;98112.86;108010;1272;21790;-79
2023/11/04 04:44:41;;;;;;;10.50;0.90;;;;;;;7.29;100.00;98114.31;107942;1272;22632;-78
2023/11/04 04:47:09;;;;;;;10.30;1.20;;;;;;;7.29;100.00;98117.04;107971;1272;22624;-79
2023/11/04 04:49:38;;;;;;;8.30;1.30;;;;;;;7.29;100.00;98124.02;108411;1273;23562;-80
2023/11/04 04:52:06;;;;;;;11.10;1.40;;;;;;;7.29;100.00;98129.24;108526;1266;22650;-78
2023/11/04 04:54:34;;;;;;;12.00;1.50;;;;;;;7.30;100.00;98134.19;108528;1272;22533;-79
2023/11/04 04:57:03;;;;;;;15.90;1.60;;;;;;;7.30;100.00;98134.89;107713;1273;22839;-78
2023/11/04 04:59:31;;;;;;;12.70;1.10;;;;;;;7.30;100.00;98133.48;108009;1272;22580;-78
2023/11/04 05:02:10;;;;;;;17.20;1.30;;;;;;;7.30;100.00;98136.71;107968;1266;22571;-79
2023/11/04 05:04:40;;;;;;;9.30;1.60;;;;;;;7.30;100.00;98135.70;107703;1270;22538;-79
2023/11/04 05:07:08;;;;;;;6.40;1.10;;;;;;;7.31;100.00;98137.67;108577;1266;22598;-79
2023/11/04 05:09:36;;;;;;;10.30;1.10;;;;;;;7.31;100.00;98137.98;108640;1272;23501;-79
2023/11/04 05:12:05;;;;;;;10.60;1.50;;;;;;;7.30;100.00;98141.40;108668;1272;23371;-79
2023/11/04 05:14:34;;;;;;;9.00;1.10;;;;;;;7.29;100.00;98149.67;108505;1269;24288;-78
2023/11/04 05:17:02;;;;;;;9.40;1.30;;;;;;;7.30;100.00;98155.69;108494;1272;27649;-79
2023/11/04 05:19:31;;;;;;;4.80;1.00;;;;;;;7.30;100.00;98160.28;108568;1272;25372;-78
2023/11/04 05:22:01;;;;;;;9.50;1.50;;;;;;;7.31;100.00;98164.41;107837;1272;23005;-79
2023/11/04 05:24:29;;;;;;;11.10;1.60;;;;;;;7.32;100.00;98165.67;107833;1269;22559;-79
2023/11/04 05:26:58;;;;;;;11.60;1.60;;;;;;;7.34;100.00;98165.72;108271;1268;22641;-79
2023/11/04 05:29:26;;;;;;;5.30;1.10;;;;;;;7.34;100.00;98167.38;108379;1270;22553;-79
2023/11/04 05:31:54;;;;;;;6.00;1.20;;;;;;;7.33;100.00;98168.20;108324;1272;22620;-80
2023/11/04 05:34:23;;;;;;;4.40;1.00;;;;;;;7.33;100.00;98172.33;108251;1259;22562;-78
2023/11/04 05:36:52;;;;;;;2.70;0.80;;;;;;;7.31;100.00;98173.19;108192;1272;22554;-78
2023/11/04 05:39:20;;;;;;;3.90;1.00;;;;;;;7.31;100.00;98174.81;107850;1272;22526;-81
2023/11/04 05:41:48;;;;;;;4.60;1.10;;;;;;;7.30;100.00;98176.02;108357;1272;24232;-83
2023/11/04 05:44:17;;;;;;;3.40;1.00;;;;;;;7.30;100.00;98180.42;108333;1270;22593;-80
2023/11/04 05:46:48;;;;;;;4.00;0.90;;;;;;;7.30;100.00;98184.05;108406;1272;23405;-79
2023/11/04 05:49:16;;;;;;;3.80;0.80;;;;;;;7.29;100.00;98184.30;108603;1272;23148;-78
2023/11/04 05:51:44;;;;;;;4.30;0.90;;;;;;;7.30;100.00;98186.33;108445;1267;22604;-80
2023/11/04 05:54:14;;;;;;;8.40;1.10;;;;;;;7.29;100.00;98191.21;108497;1267;22542;-86
2023/11/04 05:56:42;;;;;;;6.00;1.00;;;;;;;7.27;100.00;98193.28;108443;1272;23350;-79
2023/11/04 05:59:11;;;;;;;4.10;1.00;;;;;;;7.23;100.00;98194.65;108585;1272;22518;-79
2023/11/04 06:01:40;;;;;;;3.20;0.80;;;;;;;7.20;100.00;98193.04;108525;1272;22650;-79
2023/11/04 06:04:08;;;;;;;6.10;0.90;;;;;;;7.19;100.00;98198.09;108549;1272;23088;-80
2023/11/04 06:06:36;;;;;;;4.40;1.00;;;;;;;7.19;100.00;98199.80;108436;1272;23331;-78
2023/11/04 06:09:05;;;;;;;7.10;1.40;;;;;;;7.19;100.00;98200.11;108565;1272;22651;-82
2023/11/04 06:11:33;;;;;;;5.00;0.90;;;;;;;7.17;100.00;98203.84;108504;1272;25397;-78
2023/11/04 06:14:02;;;;;;;4.40;1.10;;;;;;;7.18;100.00;98203.75;108547;1272;22613;-79
2023/11/04 06:16:36;;;;;;;8.10;1.20;;;;;;;7.17;100.00;98202.58;108467;1257;22918;-81
2023/11/04 06:19:05;;;;;;;6.40;1.30;;;;;;;7.16;100.00;98201.92;108597;1272;22527;-78
2023/11/04 06:21:34;;;;;;;8.40;1.40;;;;;;;7.16;100.00;98202.20;108608;1270;22576;-81
2023/11/04 06:24:02;;;;;;;6.60;1.50;;;;;;;7.17;100.00;98203.64;108450;1272;22573;-79
2023/11/04 06:26:30;;;;;;;9.70;1.50;;;;;;;7.17;100.00;98206.45;108174;1272;22581;-79
2023/11/04 06:28:58;;;;;;;10.40;1.50;;;;;;;7.19;100.00;98206.72;108358;1272;24346;-79
2023/11/04 06:31:26;;;;;;;9.20;1.70;;;;;;;7.19;100.00;98210.86;108336;1272;22603;-77
2023/11/04 06:33:55;;;;;;;11.50;1.40;;;;;;;7.19;100.00;98215.55;108260;1269;22551;-78
2023/11/04 06:36:24;;;;;;;6.40;1.20;;;;;;;7.19;100.00;98218.08;108222;1268;22530;-80
2023/11/04 06:38:52;;;;;;;10.60;1.70;;;;;;;7.20;100.00;98221.75;108333;1272;24225;-78
2023/11/04 06:41:20;;;;;;;6.70;1.80;;;;;;;7.21;100.00;98222.66;108312;1267;22567;-78
2023/11/04 06:43:49;;;;;;;9.20;2.20;;;;;;;7.22;100.00;98229.02;108248;1269;23936;-78
2023/11/04 06:46:17;;;;;;;7.70;2.10;;;;;;;7.23;100.00;98236.73;108405;1256;23311;-82
2023/11/04 06:48:46;;;;;;;12.90;2.90;;;;;;;7.25;100.00;98238.61;108267;1272;23352;-81
2023/11/04 06:51:18;;;;;;;10.60;2.90;;;;;;;7.27;100.00;98240.21;108434;1272;22594;-84
2023/11/04 06:53:47;;;;;;;8.90;2.40;;;;;;;7.27;100.00;98245.41;108544;1266;24206;-78
2023/11/04 06:56:15;;;;;;;11.20;3.40;;;;;;;7.27;100.00;98244.92;108528;1272;22562;-77
2023/11/04 06:58:43;;;;;;;11.80;2.80;;;;;;;7.30;100.00;98250.21;108571;1272;25258;-78
2023/11/04 07:01:14;;;;;;;9.60;2.40;;;;;;;7.32;100.00;98252.02;108606;1272;25223;-79
2023/11/04 07:03:45;;;;;;;13.00;2.80;;;;;;;7.34;100.00;98247.83;108464;1266;22549;-79
2023/11/04 07:06:14;;;;;;;11.10;3.40;;;;;;;7.38;100.00;98252.23;108248;1267;25322;-79
2023/11/04 07:08:43;;;;;;;10.40;3.30;;;;;;;7.40;100.00;98253.19;108643;1250;22554;-83
2023/11/04 07:11:12;;;;;;;13.20;3.90;;;;;;;7.42;100.00;98251.72;108615;1272;23375;-78
2023/11/04 07:13:41;;;;;;;16.50;5.20;;;;;;;7.46;100.00;98258.59;108619;1272;22577;-79
2023/11/04 07:16:14;;;;;;;12.40;4.30;;;;;;;7.50;100.00;98258.02;108601;1267;22557;-79
2023/11/04 07:18:42;;;;;;;13.90;3.80;;;;;;;7.55;100.00;98257.73;108617;1272;22610;-78
2023/11/04 07:21:12;;;;;;;17.40;4.40;;;;;;;7.60;100.00;98257.06;108507;1272;22544;-79
2023/11/04 07:23:41;;;;;;;16.10;5.00;;;;;;;7.63;100.00;98259.73;108405;1272;22565;-78
2023/11/04 07:26:09;;;;;;;17.30;5.40;;;;;;;7.68;100.00;98255.94;108311;1269;25327;-77
2023/11/04 07:28:37;;;;;;;10.10;3.90;;;;;;;7.74;100.00;98256.44;108382;1272;22564;-78
2023/11/04 07:31:07;;;;;;;16.60;5.00;;;;;;;7.79;100.00;98256.98;108276;1272;25038;-77
2023/11/04 07:33:36;;;;;;;12.20;4.90;;;;;;;7.84;100.00;98254.95;107865;1272;25396;-78
2023/11/04 07:36:07;;;;;;;16.80;5.50;;;;;;;7.89;100.00;98254.92;107857;1272;22714;-82
2023/11/04 07:38:35;;;;;;;17.40;5.40;;;;;;;7.95;100.00;98253.56;110776;1272;22164;-79
2023/11/04 07:41:05;;;;;;;12.20;4.00;;;;;;;8.01;100.00;98250.21;110795;1268;22199;-83
2023/11/04 07:43:33;;;;;;;14.10;3.20;;;;;;;8.08;100.00;98254.19;109220;1272;22633;-80
2023/11/04 07:46:01;;;;;;;12.80;3.30;;;;;;;8.14;100.00;98250.93;108298;1261;22566;-79
2023/11/04 07:48:30;;;;;;;14.50;3.70;;;;;;;8.20;100.00;98250.01;108359;1272;23343;-80
2023/11/04 07:50:58;;;;;;;11.00;2.50;;;;;;;8.27;100.00;98249.50;108300;1272;22657;-77
2023/11/04 07:53:26;;;;;;;10.10;3.10;;;;;;;8.32;100.00;98250.24;108006;1272;25277;-82
2023/11/04 07:55:55;;;;;;;21.00;4.20;;;;;;;8.37;100.00;98250.38;107947;1272;24240;-77
2023/11/04 07:58:24;;;;;;;12.90;3.70;;;;;;;8.42;100.00;98246.51;107904;1272;23064;-80
2023/11/04 08:00:53;;;;;;;19.80;3.30;;;;;;;8.46;100.00;98248.85;108596;1272;22539;-78
2023/11/04 08:03:22;;;;;;;13.20;2.80;;;;;;;8.49;100.00;98252.70;108522;1257;22586;-80
2023/11/04 08:05:51;;;;;;;13.70;2.80;;;;;;;8.52;100.00;98257.23;108515;1272;25500;-81
2023/11/04 08:08:26;;;;;;;14.80;4.10;;;;;;;8.55;100.00;98257.06;108457;1272;22508;-79
2023/11/04 08:10:58;;;;;;;12.80;3.80;;;;;;;8.60;100.00;98255.46;108644;1260;22525;-80
2023/11/04 08:13:28;;;;;;;13.80;3.70;;;;;;;8.63;100.00;98252.61;108584;1269;22591;-77
2023/11/04 08:15:56;;;;;;;14.40;3.70;;;;;;;8.65;100.00;98247.52;108666;1257;24339;-79
2023/11/04 08:18:31;;;;;;;13.60;3.20;;;;;;;8.68;100.00;98236.88;109401;1272;22524;-80
2023/11/04 08:21:00;;;;;;;12.30;3.40;;;;;;;8.71;100.00;98234.42;109720;1272;24189;-81
2023/11/04 08:23:29;;;;;;;11.80;3.60;;;;;;;8.73;100.00;98236.94;109366;1268;25233;-78
2023/11/04 08:25:57;;;;;;;10.80;3.50;;;;;;;8.76;100.00;98239.60;108742;1272;22568;-78
2023/11/04 08:28:28;;;;;;;12.90;3.60;;;;;;;8.77;100.00;98241.46;108636;1272;23387;-78
2023/11/04 08:30:57;;;;;;;16.60;3.00;;;;;;;8.78;100.00;98246.42;108012;1272;22524;-79
2023/11/04 08:33:28;;;;;;;12.20;3.60;;;;;;;8.80;100.00;98249.74;107914;1272;22531;-78
2023/11/04 08:35:57;;;;;;;9.80;2.10;;;;;;;8.80;100.00;98251.88;108361;1272;22657;-77
2023/11/04 08:38:25;;;;;;;11.60;2.90;;;;;;;8.82;100.00;98250.60;108354;1266;25396;-78
2023/11/04 08:40:54;;;;;;;13.40;2.60;;;;;;;8.83;100.00;98248.67;108130;1272;22521;-77
2023/11/04 08:43:22;;;;;;;10.60;3.30;;;;;;;8.84;100.00;98249.11;108200;1272;22527;-79
2023/11/04 08:45:51;;;;;;;12.80;2.60;;;;;;;8.85;100.00;98247.95;108265;1272;22521;-78
2023/11/04 08:48:19;;;;;;;16.60;3.40;;;;;;;8.88;100.00;98251.32;107726;1272;22657;-77
2023/11/04 08:50:47;;;;;;;15.00;3.20;;;;;;;8.90;100.00;98252.71;108295;1272;25223;-78
2023/11/04 08:53:16;;;;;;;12.30;2.90;;;;;;;8.92;100.00;98252.16;108297;1265;22619;-80
2023/11/04 08:55:44;;;;;;;12.40;2.30;;;;;;;8.95;100.00;98253.65;108301;1269;22530;-78
2023/11/04 08:58:13;;;;;;;8.60;1.60;;;;;;;8.98;100.00;98253.23;108335;1263;22605;-78
2023/11/04 09:00:44;;;;;;;8.10;1.60;;;;;;;8.99;100.00;98244.71;108468;1272;22528;-80
2023/11/04 09:03:14;;;;;;;9.40;2.10;;;;;;;9.02;100.00;98243.54;108474;1267;22603;-81
2023/11/04 09:05:43;;;;;;;15.00;1.70;;;;;;;9.06;100.00;98241.48;108512;1272;22562;-78
2023/11/04 09:08:11;;;;;;;8.80;2.10;;;;;;;9.08;100.00;98239.24;108353;1272;24701;-77
2023/11/04 09:10:40;;;;;;;10.00;1.80;;;;;;;9.10;100.00;98240.55;108512;1272;23011;-77
2023/11/04 09:13:08;;;;;;;10.00;1.70;;;;;;;9.12;100.00;98239.77;108419;1272;25305;-77
2023/11/04 09:15:39;;;;;;;9.00;1.60;;;;;;;9.15;100.00;98239.73;108567;1272;23313;-77
2023/11/04 09:18:10;;;;;;;12.30;1.60;;;;;;;9.16;100.00;98240.09;107850;1272;24334;-75
2023/11/04 09:20:39;;;;;;;14.50;2.00;;;;;;;9.18;100.00;98243.27;108027;1270;22549;-75
2023/11/04 09:23:11;;;;;;;4.60;1.10;;;;;;;9.21;100.00;98241.17;108006;1272;22542;-75
2023/11/04 09:25:39;;;;;;;8.70;1.50;;;;;;;9.22;100.00;98244.71;107828;1272;22552;-75
2023/11/04 09:28:08;;;;;;;7.50;1.60;;;;;;;9.24;100.00;98245.70;107813;1272;22557;-75
2023/11/04 09:30:36;;;;;;;8.60;1.30;;;;;;;9.25;100.00;98245.91;107967;1272;22650;-76
2023/11/04 09:33:04;;;;;;;5.90;1.10;;;;;;;9.26;99.16;98244.94;107841;1272;22540;-75
2023/11/04 09:35:32;;;;;;;8.40;1.30;;;;;;;9.28;99.43;98246.34;107896;1272;25300;-76
2023/11/04 09:38:04;;;;;;;10.50;1.40;;;;;;;9.30;99.71;98250.36;107865;1272;22998;-75
2023/11/04 09:40:33;;;;;;;10.80;1.90;;;;;;;9.33;99.88;98246.23;107833;1272;22542;-75
2023/11/04 09:43:02;;;;;;;8.40;1.00;;;;;;;9.35;99.61;98237.91;107773;1272;23245;-75
2023/11/04 09:45:31;;;;;;;9.50;1.40;;;;;;;9.39;99.13;98239.20;107802;1272;23441;-75
2023/11/04 09:48:01;;;;;;;10.60;2.40;;;;;;;9.42;98.71;98238.38;107803;1272;22585;-75
2023/11/04 09:50:28;;;;;;;;;;;;;;;9.44;98.83;98235.86;107824;1272;22707;-75
2023/11/04 09:53:04;;;;;;;8.40;1.20;;;;;;;9.48;98.72;98234.12;107745;1272;25396;-75
2023/11/04 09:55:32;;;;;;;9.40;1.40;;;;;;;9.50;98.81;98225.43;107758;1272;22535;-75
2023/11/04 09:58:04;;;;;;;6.20;1.10;;;;;;;9.52;98.69;98218.83;107959;1272;25227;-75
2023/11/04 10:00:36;;;;;;;12.40;1.20;;;;;;;9.53;98.32;98212.02;108309;1272;25220;-75
2023/11/04 10:03:06;;;;;;;7.70;1.40;;;;;;;9.57;97.69;98213.11;110728;1272;22225;-76
2023/11/04 10:05:37;;;;;;;6.90;1.00;;;;;;;9.59;96.98;98209.45;110777;1272;22419;-76
2023/11/04 10:08:05;;;;;;;5.00;1.20;;;;;;;9.61;97.45;98203.77;110721;1272;22848;-76
2023/11/04 10:10:34;;;;;;;9.50;1.70;;;;;;;9.65;96.82;98197.64;110769;1272;22440;-75
2023/11/04 10:13:02;;;;;;;6.40;1.10;;;;;;;9.69;96.61;98193.09;110702;1272;22214;-76
2023/11/04 10:15:31;;;;;;;9.30;1.40;;;;;;;9.73;96.53;98189.69;110757;1272;22201;-75
2023/11/04 10:18:02;;;;;;;5.40;1.00;;;;;;;9.77;96.42;98189.30;110683;1272;23521;-76
2023/11/04 10:20:31;;;;;;;10.00;1.10;;;;;;;9.81;96.43;98178.02;110713;1269;22220;-76
2023/11/04 10:23:00;;;;;;;7.60;1.00;;;;;;;9.85;96.38;98178.92;110679;1267;22195;-75
2023/11/04 10:25:29;;;;;;;6.70;1.00;;;;;;;9.91;95.93;98174.41;110733;1272;22914;-75
2023/11/04 10:27:58;;;;;;;6.80;0.90;;;;;;;9.95;95.90;98174.61;110688;1269;22157;-75
2023/11/04 10:30:30;;;;;;;6.00;1.00;;;;;;;9.99;95.64;98171.68;110797;1267;22183;-76
2023/11/04 10:33:07;;;;;;;9.30;0.90;;;;;;;10.02;95.28;98172.30;110675;1266;22226;-75
2023/11/04 10:35:37;;;;;;;8.50;1.40;;;;;;;10.05;94.99;98169.36;110729;1272;22136;-76
2023/11/04 10:38:10;;;;;;;6.70;0.80;;;;;;;10.08;94.73;98164.16;110772;1269;23149;-75
2023/11/04 10:40:41;;;;;;;7.90;0.90;;;;;;;10.11;94.38;98161.56;110787;1272;22183;-75
2023/11/04 10:43:14;;;;;;;7.80;1.00;;;;;;;10.15;94.54;98157.41;110496;1272;22205;-75
2023/11/04 10:45:52;;;;;;;3.60;0.50;;;;;;;10.18;93.78;98155.40;110739;1272;22172;-75
2023/11/04 10:48:33;;;;;;;3.90;0.60;;;;;;;10.20;93.23;98153.70;110752;1272;22314;-76
2023/11/04 10:51:12;;;;;;;2.30;0.60;;;;;;;10.23;93.16;98152.80;110792;1269;22163;-75
2023/11/04 10:53:49;;;;;;;6.60;0.90;;;;;;;10.28;93.00;98153.40;110777;1272;22201;-75
2023/11/04 10:56:25;;;;;;;6.30;0.60;;;;;;;10.30;93.45;98149.66;110521;1272;22274;-75
2023/11/04 10:59:04;;;;;;;6.90;0.80;;;;;;;10.31;93.15;98153.92;110800;1272;22246;-75
2023/11/04 11:01:43;;;;;;;8.90;0.50;;;;;;;10.32;92.65;98152.68;110762;1266;22313;-75
2023/11/04 11:04:12;;;;;;;6.10;0.80;;;;;;;10.35;92.57;98149.20;110767;1272;22182;-75
2023/11/04 11:06:45;;;;;;;8.10;1.00;;;;;;;10.34;92.09;98146.98;110760;1272;22116;-76
2023/11/04 11:09:15;;;;;;;4.90;0.60;;;;;;;10.34;92.02;98149.71;110824;1263;22149;-76
2023/11/04 11:11:54;;;;;;;4.80;0.70;;;;;;;10.36;91.61;98146.95;110666;1272;22167;-76
2023/11/04 11:14:25;;;;;;;2.70;0.60;;;;;;;10.38;91.57;98142.11;110747;1272;22377;-76
2023/11/04 11:17:05;;;;;;;4.80;0.70;;;;;;;10.39;91.10;98136.52;110740;1272;22157;-76
2023/11/04 11:19:46;;;;;;;6.70;0.50;;;;;;;10.38;90.06;98135.42;110758;1272;22511;-76
2023/11/04 11:22:25;;;;;;;4.30;0.60;;;;;;;10.38;89.58;98137.19;110675;1270;22457;-75
2023/11/04 11:25:00;;;;;;;7.80;0.60;;;;;;;10.39;89.37;98135.59;110719;1272;22316;-75
2023/11/04 11:27:30;;;;;;;3.80;0.50;;;;;;;10.40;89.20;98140.52;110732;1269;22142;-75
2023/11/04 11:30:04;;;;;;;6.30;0.70;;;;;;;10.40;89.60;98137.80;110759;1269;22983;-75
2023/11/04 11:32:35;;;;;;;4.60;0.60;;;;;;;10.43;89.24;98131.54;110543;1272;23206;-75
2023/11/04 11:35:07;;;;;;;2.60;0.60;;;;;;;10.48;89.96;98125.53;110739;1272;23273;-77